sensor_id;sensor_type;location;lat;lon;timestamp;P1;durP1;ratioP1;P2;durP2;ratioP2
9892;SDS011;4985;49.092;8.542;2022-11-12T00:01:12;2.60;;;2.40;;
9892;SDS011;4985;49.092;8.542;2022-11-12T00:03:39;2.17;;;1.97;;
9892;SDS011;4985;49.092;8.542;2022-11-12T00:06:06;2.33;;;2.13;;
9892;SDS011;4985;49.092;8.542;2022-11-12T00:08:33;2.43;;;2.23;;
9892;SDS011;4985;49.092;8.542;2022-11-12T00:11:01;2.30;;;2.10;;
9892;SDS011;4985;49.092;8.542;2022-11-12T00:13:28;2.13;;;1.97;;
9892;SDS011;4985;49.092;8.542;2022-11-12T00:15:55;2.37;;;2.17;;
9892;SDS011;4985;49.092;8.542;2022-11-12T00:18:22;2.50;;;2.20;;
9892;SDS011;4985;49.092;8.542;2022-11-12T00:20:48;2.73;;;2.37;;
9892;SDS011;4985;49.092;8.542;2022-11-12T00:23:15;3.10;;;2.33;;
9892;SDS011;4985;49.092;8.542;2022-11-12T00:25:42;2.40;;;2.20;;
9892;SDS011;4985;49.092;8.542;2022-11-12T00:28:10;3.20;;;2.67;;
9892;SDS011;4985;49.092;8.542;2022-11-12T00:30:37;5.37;;;2.33;;
9892;SDS011;4985;49.092;8.542;2022-11-12T00:33:05;2.70;;;2.23;;
9892;SDS011;4985;49.092;8.542;2022-11-12T00:35:32;2.23;;;2.03;;
9892;SDS011;4985;49.092;8.542;2022-11-12T00:37:59;3.67;;;2.30;;
9892;SDS011;4985;49.092;8.542;2022-11-12T00:40:26;2.57;;;2.30;;
9892;SDS011;4985;49.092;8.542;2022-11-12T00:42:53;3.33;;;2.53;;
9892;SDS011;4985;49.092;8.542;2022-11-12T00:45:22;2.37;;;2.17;;
9892;SDS011;4985;49.092;8.542;2022-11-12T00:47:52;2.97;;;2.47;;
9892;SDS011;4985;49.092;8.542;2022-11-12T00:50:19;2.73;;;2.40;;
9892;SDS011;4985;49.092;8.542;2022-11-12T00:52:46;3.07;;;2.47;;
9892;SDS011;4985;49.092;8.542;2022-11-12T00:55:13;4.07;;;2.90;;
9892;SDS011;4985;49.092;8.542;2022-11-12T00:57:40;2.97;;;2.50;;
9892;SDS011;4985;49.092;8.542;2022-11-12T01:00:07;3.90;;;2.60;;
9892;SDS011;4985;49.092;8.542;2022-11-12T01:02:41;2.57;;;2.37;;
9892;SDS011;4985;49.092;8.542;2022-11-12T01:05:08;3.33;;;2.30;;
9892;SDS011;4985;49.092;8.542;2022-11-12T01:07:34;4.17;;;2.53;;
9892;SDS011;4985;49.092;8.542;2022-11-12T01:10:02;4.50;;;3.40;;
9892;SDS011;4985;49.092;8.542;2022-11-12T01:12:29;4.40;;;3.10;;
9892;SDS011;4985;49.092;8.542;2022-11-12T01:14:56;4.20;;;3.03;;
9892;SDS011;4985;49.092;8.542;2022-11-12T01:17:22;3.50;;;2.53;;
9892;SDS011;4985;49.092;8.542;2022-11-12T01:19:50;3.17;;;2.87;;
9892;SDS011;4985;49.092;8.542;2022-11-12T01:22:17;3.83;;;3.13;;
9892;SDS011;4985;49.092;8.542;2022-11-12T01:24:43;4.30;;;3.53;;
9892;SDS011;4985;49.092;8.542;2022-11-12T01:27:10;4.77;;;3.63;;
9892;SDS011;4985;49.092;8.542;2022-11-12T01:29:37;4.20;;;3.50;;
9892;SDS011;4985;49.092;8.542;2022-11-12T01:32:03;3.70;;;3.20;;
9892;SDS011;4985;49.092;8.542;2022-11-12T01:34:30;4.07;;;3.30;;
9892;SDS011;4985;49.092;8.542;2022-11-12T01:36:59;3.47;;;3.07;;
9892;SDS011;4985;49.092;8.542;2022-11-12T01:39:25;4.43;;;2.80;;
9892;SDS011;4985;49.092;8.542;2022-11-12T01:41:52;4.67;;;3.27;;
9892;SDS011;4985;49.092;8.542;2022-11-12T01:44:19;4.93;;;3.27;;
9892;SDS011;4985;49.092;8.542;2022-11-12T01:46:54;3.57;;;2.97;;
9892;SDS011;4985;49.092;8.542;2022-11-12T01:49:26;3.87;;;3.07;;
9892;SDS011;4985;49.092;8.542;2022-11-12T01:51:58;5.27;;;3.23;;
9892;SDS011;4985;49.092;8.542;2022-11-12T01:54:35;3.57;;;3.07;;
9892;SDS011;4985;49.092;8.542;2022-11-12T01:57:03;4.20;;;3.43;;
9892;SDS011;4985;49.092;8.542;2022-11-12T01:59:42;3.80;;;3.13;;
9892;SDS011;4985;49.092;8.542;2022-11-12T02:02:12;3.37;;;2.87;;
9892;SDS011;4985;49.092;8.542;2022-11-12T02:04:39;4.30;;;3.37;;
9892;SDS011;4985;49.092;8.542;2022-11-12T02:07:09;3.13;;;2.83;;
9892;SDS011;4985;49.092;8.542;2022-11-12T02:09:36;3.63;;;3.17;;
9892;SDS011;4985;49.092;8.542;2022-11-12T02:12:03;4.03;;;3.17;;
9892;SDS011;4985;49.092;8.542;2022-11-12T02:14:31;3.73;;;3.37;;
9892;SDS011;4985;49.092;8.542;2022-11-12T02:16:57;3.80;;;2.97;;
9892;SDS011;4985;49.092;8.542;2022-11-12T02:19:25;4.23;;;3.50;;
9892;SDS011;4985;49.092;8.542;2022-11-12T02:21:53;5.37;;;2.97;;
9892;SDS011;4985;49.092;8.542;2022-11-12T02:24:29;3.17;;;2.80;;
9892;SDS011;4985;49.092;8.542;2022-11-12T02:26:57;3.37;;;2.73;;
9892;SDS011;4985;49.092;8.542;2022-11-12T02:29:24;3.33;;;3.03;;
9892;SDS011;4985;49.092;8.542;2022-11-12T02:31:51;4.07;;;3.27;;
9892;SDS011;4985;49.092;8.542;2022-11-12T02:34:18;3.10;;;2.80;;
9892;SDS011;4985;49.092;8.542;2022-11-12T02:36:44;4.53;;;3.13;;
9892;SDS011;4985;49.092;8.542;2022-11-12T02:39:12;3.27;;;2.87;;
9892;SDS011;4985;49.092;8.542;2022-11-12T02:41:39;3.73;;;3.00;;
9892;SDS011;4985;49.092;8.542;2022-11-12T02:44:06;3.00;;;2.70;;
9892;SDS011;4985;49.092;8.542;2022-11-12T02:46:32;4.13;;;3.20;;
9892;SDS011;4985;49.092;8.542;2022-11-12T02:48:59;4.33;;;2.87;;
9892;SDS011;4985;49.092;8.542;2022-11-12T02:51:25;3.97;;;2.97;;
9892;SDS011;4985;49.092;8.542;2022-11-12T02:53:52;4.43;;;3.27;;
9892;SDS011;4985;49.092;8.542;2022-11-12T02:56:20;3.87;;;3.47;;
9892;SDS011;4985;49.092;8.542;2022-11-12T02:58:47;3.20;;;2.63;;
9892;SDS011;4985;49.092;8.542;2022-11-12T03:01:13;4.47;;;3.27;;
9892;SDS011;4985;49.092;8.542;2022-11-12T03:03:40;3.43;;;2.90;;
9892;SDS011;4985;49.092;8.542;2022-11-12T03:06:06;3.47;;;3.10;;
9892;SDS011;4985;49.092;8.542;2022-11-12T03:08:33;3.10;;;2.77;;
9892;SDS011;4985;49.092;8.542;2022-11-12T03:11:04;3.80;;;3.10;;
9892;SDS011;4985;49.092;8.542;2022-11-12T03:13:33;3.10;;;2.30;;
9892;SDS011;4985;49.092;8.542;2022-11-12T03:15:59;2.93;;;2.57;;
9892;SDS011;4985;49.092;8.542;2022-11-12T03:18:26;2.97;;;2.50;;
9892;SDS011;4985;49.092;8.542;2022-11-12T03:20:54;2.83;;;2.53;;
9892;SDS011;4985;49.092;8.542;2022-11-12T03:23:20;6.17;;;2.93;;
9892;SDS011;4985;49.092;8.542;2022-11-12T03:25:47;3.07;;;2.83;;
9892;SDS011;4985;49.092;8.542;2022-11-12T03:28:14;2.73;;;2.53;;
9892;SDS011;4985;49.092;8.542;2022-11-12T03:30:43;3.03;;;2.73;;
9892;SDS011;4985;49.092;8.542;2022-11-12T03:33:11;2.43;;;2.17;;
9892;SDS011;4985;49.092;8.542;2022-11-12T03:35:39;4.17;;;2.77;;
9892;SDS011;4985;49.092;8.542;2022-11-12T03:38:06;2.90;;;2.53;;
9892;SDS011;4985;49.092;8.542;2022-11-12T03:40:33;3.20;;;2.77;;
9892;SDS011;4985;49.092;8.542;2022-11-12T03:43:00;2.90;;;2.57;;
9892;SDS011;4985;49.092;8.542;2022-11-12T03:45:27;2.50;;;2.30;;
9892;SDS011;4985;49.092;8.542;2022-11-12T03:47:55;2.63;;;2.43;;
9892;SDS011;4985;49.092;8.542;2022-11-12T03:50:23;3.37;;;2.70;;
9892;SDS011;4985;49.092;8.542;2022-11-12T03:52:53;2.60;;;2.20;;
9892;SDS011;4985;49.092;8.542;2022-11-12T03:55:21;2.53;;;2.30;;
9892;SDS011;4985;49.092;8.542;2022-11-12T03:57:49;3.47;;;3.00;;
9892;SDS011;4985;49.092;8.542;2022-11-12T04:00:17;3.17;;;2.87;;
9892;SDS011;4985;49.092;8.542;2022-11-12T04:02:44;3.07;;;2.57;;
9892;SDS011;4985;49.092;8.542;2022-11-12T04:05:12;2.50;;;2.30;;
9892;SDS011;4985;49.092;8.542;2022-11-12T04:07:57;2.83;;;2.50;;
9892;SDS011;4985;49.092;8.542;2022-11-12T04:10:42;3.10;;;2.60;;
9892;SDS011;4985;49.092;8.542;2022-11-12T04:13:09;2.73;;;2.53;;
9892;SDS011;4985;49.092;8.542;2022-11-12T04:15:52;3.97;;;3.00;;
9892;SDS011;4985;49.092;8.542;2022-11-12T04:18:33;3.07;;;2.70;;
9892;SDS011;4985;49.092;8.542;2022-11-12T04:21:19;2.97;;;2.53;;
9892;SDS011;4985;49.092;8.542;2022-11-12T04:24:03;3.67;;;2.63;;
9892;SDS011;4985;49.092;8.542;2022-11-12T04:26:30;3.40;;;2.83;;
9892;SDS011;4985;49.092;8.542;2022-11-12T04:28:56;3.40;;;2.80;;
9892;SDS011;4985;49.092;8.542;2022-11-12T04:31:40;3.87;;;2.90;;
9892;SDS011;4985;49.092;8.542;2022-11-12T04:34:07;4.17;;;3.07;;
9892;SDS011;4985;49.092;8.542;2022-11-12T04:36:52;4.53;;;3.07;;
9892;SDS011;4985;49.092;8.542;2022-11-12T04:39:19;3.60;;;3.20;;
9892;SDS011;4985;49.092;8.542;2022-11-12T04:41:45;5.40;;;2.90;;
9892;SDS011;4985;49.092;8.542;2022-11-12T04:44:29;4.10;;;3.23;;
9892;SDS011;4985;49.092;8.542;2022-11-12T04:47:13;3.33;;;2.90;;
9892;SDS011;4985;49.092;8.542;2022-11-12T04:49:40;4.07;;;3.00;;
9892;SDS011;4985;49.092;8.542;2022-11-12T04:52:09;4.07;;;3.20;;
9892;SDS011;4985;49.092;8.542;2022-11-12T04:54:35;2.63;;;2.40;;
9892;SDS011;4985;49.092;8.542;2022-11-12T04:57:02;2.40;;;2.20;;
9892;SDS011;4985;49.092;8.542;2022-11-12T04:59:29;3.13;;;2.77;;
9892;SDS011;4985;49.092;8.542;2022-11-12T05:01:55;3.93;;;2.63;;
9892;SDS011;4985;49.092;8.542;2022-11-12T05:04:22;2.97;;;2.47;;
9892;SDS011;4985;49.092;8.542;2022-11-12T05:06:51;2.90;;;2.50;;
9892;SDS011;4985;49.092;8.542;2022-11-12T05:09:20;3.13;;;2.67;;
9892;SDS011;4985;49.092;8.542;2022-11-12T05:11:48;2.93;;;2.60;;
9892;SDS011;4985;49.092;8.542;2022-11-12T05:14:14;2.90;;;2.60;;
9892;SDS011;4985;49.092;8.542;2022-11-12T05:16:41;4.40;;;2.67;;
9892;SDS011;4985;49.092;8.542;2022-11-12T05:19:08;4.77;;;3.00;;
9892;SDS011;4985;49.092;8.542;2022-11-12T05:21:35;2.77;;;2.50;;
9892;SDS011;4985;49.092;8.542;2022-11-12T05:24:20;2.90;;;2.27;;
9892;SDS011;4985;49.092;8.542;2022-11-12T05:26:47;2.87;;;2.57;;
9892;SDS011;4985;49.092;8.542;2022-11-12T05:29:13;3.53;;;3.20;;
9892;SDS011;4985;49.092;8.542;2022-11-12T05:31:40;4.17;;;3.07;;
9892;SDS011;4985;49.092;8.542;2022-11-12T05:34:07;3.67;;;3.00;;
9892;SDS011;4985;49.092;8.542;2022-11-12T05:36:34;3.67;;;3.20;;
9892;SDS011;4985;49.092;8.542;2022-11-12T05:39:00;4.53;;;2.77;;
9892;SDS011;4985;49.092;8.542;2022-11-12T05:41:28;3.37;;;2.50;;
9892;SDS011;4985;49.092;8.542;2022-11-12T05:43:55;2.93;;;2.63;;
9892;SDS011;4985;49.092;8.542;2022-11-12T05:46:22;3.13;;;2.80;;
9892;SDS011;4985;49.092;8.542;2022-11-12T05:48:49;4.67;;;3.43;;
9892;SDS011;4985;49.092;8.542;2022-11-12T05:51:15;3.80;;;3.17;;
9892;SDS011;4985;49.092;8.542;2022-11-12T05:53:42;5.27;;;3.77;;
9892;SDS011;4985;49.092;8.542;2022-11-12T05:56:09;4.23;;;3.47;;
9892;SDS011;4985;49.092;8.542;2022-11-12T05:58:37;3.37;;;3.03;;
9892;SDS011;4985;49.092;8.542;2022-11-12T06:01:04;3.73;;;2.70;;
9892;SDS011;4985;49.092;8.542;2022-11-12T06:03:31;3.60;;;2.87;;
9892;SDS011;4985;49.092;8.542;2022-11-12T06:05:58;5.13;;;3.23;;
9892;SDS011;4985;49.092;8.542;2022-11-12T06:08:25;3.77;;;2.93;;
9892;SDS011;4985;49.092;8.542;2022-11-12T06:10:52;2.57;;;2.37;;
9892;SDS011;4985;49.092;8.542;2022-11-12T06:13:19;3.07;;;2.53;;
9892;SDS011;4985;49.092;8.542;2022-11-12T06:15:49;3.10;;;2.67;;
9892;SDS011;4985;49.092;8.542;2022-11-12T06:18:16;2.77;;;2.33;;
9892;SDS011;4985;49.092;8.542;2022-11-12T06:20:42;2.57;;;2.37;;
9892;SDS011;4985;49.092;8.542;2022-11-12T06:23:31;3.00;;;2.40;;
9892;SDS011;4985;49.092;8.542;2022-11-12T06:25:58;2.77;;;2.50;;
9892;SDS011;4985;49.092;8.542;2022-11-12T06:28:25;2.60;;;2.40;;
9892;SDS011;4985;49.092;8.542;2022-11-12T06:30:55;3.10;;;2.57;;
9892;SDS011;4985;49.092;8.542;2022-11-12T06:33:21;2.53;;;2.10;;
9892;SDS011;4985;49.092;8.542;2022-11-12T06:35:55;2.87;;;2.50;;
9892;SDS011;4985;49.092;8.542;2022-11-12T06:38:26;2.60;;;2.33;;
9892;SDS011;4985;49.092;8.542;2022-11-12T06:40:54;3.60;;;2.77;;
9892;SDS011;4985;49.092;8.542;2022-11-12T06:43:20;3.17;;;2.70;;
9892;SDS011;4985;49.092;8.542;2022-11-12T06:45:47;3.60;;;2.60;;
9892;SDS011;4985;49.092;8.542;2022-11-12T06:48:15;3.10;;;2.50;;
9892;SDS011;4985;49.092;8.542;2022-11-12T06:50:41;3.40;;;2.53;;
9892;SDS011;4985;49.092;8.542;2022-11-12T06:53:08;3.53;;;2.43;;
9892;SDS011;4985;49.092;8.542;2022-11-12T06:55:35;3.00;;;2.60;;
9892;SDS011;4985;49.092;8.542;2022-11-12T06:58:01;2.93;;;2.67;;
9892;SDS011;4985;49.092;8.542;2022-11-12T07:00:28;3.10;;;2.67;;
9892;SDS011;4985;49.092;8.542;2022-11-12T07:02:54;3.23;;;2.43;;
9892;SDS011;4985;49.092;8.542;2022-11-12T07:05:22;4.67;;;2.83;;
9892;SDS011;4985;49.092;8.542;2022-11-12T07:07:49;3.87;;;3.00;;
9892;SDS011;4985;49.092;8.542;2022-11-12T07:10:16;3.03;;;2.73;;
9892;SDS011;4985;49.092;8.542;2022-11-12T07:12:42;2.97;;;2.67;;
9892;SDS011;4985;49.092;8.542;2022-11-12T07:15:09;4.67;;;2.50;;
9892;SDS011;4985;49.092;8.542;2022-11-12T07:17:36;3.10;;;2.50;;
9892;SDS011;4985;49.092;8.542;2022-11-12T07:20:03;3.07;;;2.43;;
9892;SDS011;4985;49.092;8.542;2022-11-12T07:22:32;3.83;;;2.60;;
9892;SDS011;4985;49.092;8.542;2022-11-12T07:24:59;3.00;;;2.63;;
9892;SDS011;4985;49.092;8.542;2022-11-12T07:27:27;3.63;;;2.63;;
9892;SDS011;4985;49.092;8.542;2022-11-12T07:29:55;3.03;;;2.73;;
9892;SDS011;4985;49.092;8.542;2022-11-12T07:32:22;3.33;;;2.87;;
9892;SDS011;4985;49.092;8.542;2022-11-12T07:34:48;3.90;;;2.70;;
9892;SDS011;4985;49.092;8.542;2022-11-12T07:37:15;2.90;;;2.60;;
9892;SDS011;4985;49.092;8.542;2022-11-12T07:39:43;3.07;;;2.73;;
9892;SDS011;4985;49.092;8.542;2022-11-12T07:42:09;3.33;;;2.83;;
9892;SDS011;4985;49.092;8.542;2022-11-12T07:44:36;3.33;;;2.83;;
9892;SDS011;4985;49.092;8.542;2022-11-12T07:47:03;4.87;;;2.60;;
9892;SDS011;4985;49.092;8.542;2022-11-12T07:49:29;4.17;;;3.07;;
9892;SDS011;4985;49.092;8.542;2022-11-12T07:51:56;3.27;;;2.90;;
9892;SDS011;4985;49.092;8.542;2022-11-12T07:54:23;4.03;;;2.80;;
9892;SDS011;4985;49.092;8.542;2022-11-12T07:56:51;4.00;;;3.00;;
9892;SDS011;4985;49.092;8.542;2022-11-12T07:59:17;3.50;;;2.93;;
9892;SDS011;4985;49.092;8.542;2022-11-12T08:01:44;3.47;;;2.87;;
9892;SDS011;4985;49.092;8.542;2022-11-12T08:04:10;3.93;;;2.93;;
9892;SDS011;4985;49.092;8.542;2022-11-12T08:06:38;3.73;;;3.07;;
9892;SDS011;4985;49.092;8.542;2022-11-12T08:09:05;5.53;;;5.00;;
9892;SDS011;4985;49.092;8.542;2022-11-12T08:11:34;2.87;;;2.57;;
9892;SDS011;4985;49.092;8.542;2022-11-12T08:14:02;2.93;;;2.63;;
9892;SDS011;4985;49.092;8.542;2022-11-12T08:16:29;3.50;;;2.97;;
9892;SDS011;4985;49.092;8.542;2022-11-12T08:18:56;4.47;;;3.40;;
9892;SDS011;4985;49.092;8.542;2022-11-12T08:21:23;3.70;;;3.27;;
9892;SDS011;4985;49.092;8.542;2022-11-12T08:23:50;3.67;;;3.13;;
9892;SDS011;4985;49.092;8.542;2022-11-12T08:26:17;3.53;;;3.23;;
9892;SDS011;4985;49.092;8.542;2022-11-12T08:28:45;4.77;;;3.77;;
9892;SDS011;4985;49.092;8.542;2022-11-12T08:31:14;4.63;;;3.40;;
9892;SDS011;4985;49.092;8.542;2022-11-12T08:33:42;4.10;;;2.93;;
9892;SDS011;4985;49.092;8.542;2022-11-12T08:36:09;3.27;;;2.93;;
9892;SDS011;4985;49.092;8.542;2022-11-12T08:38:38;4.20;;;3.40;;
9892;SDS011;4985;49.092;8.542;2022-11-12T08:41:07;5.00;;;3.37;;
9892;SDS011;4985;49.092;8.542;2022-11-12T08:43:35;4.03;;;3.53;;
9892;SDS011;4985;49.092;8.542;2022-11-12T08:46:05;3.93;;;3.07;;
9892;SDS011;4985;49.092;8.542;2022-11-12T08:48:33;4.07;;;3.33;;
9892;SDS011;4985;49.092;8.542;2022-11-12T08:51:00;3.80;;;3.27;;
9892;SDS011;4985;49.092;8.542;2022-11-12T08:53:28;4.27;;;3.20;;
9892;SDS011;4985;49.092;8.542;2022-11-12T08:55:55;3.30;;;2.90;;
9892;SDS011;4985;49.092;8.542;2022-11-12T08:58:22;4.67;;;3.47;;
9892;SDS011;4985;49.092;8.542;2022-11-12T09:00:49;4.03;;;3.50;;
9892;SDS011;4985;49.092;8.542;2022-11-12T09:03:17;4.23;;;3.17;;
9892;SDS011;4985;49.092;8.542;2022-11-12T09:05:47;4.30;;;3.87;;
9892;SDS011;4985;49.092;8.542;2022-11-12T09:08:15;3.80;;;3.27;;
9892;SDS011;4985;49.092;8.542;2022-11-12T09:10:43;4.40;;;3.53;;
9892;SDS011;4985;49.092;8.542;2022-11-12T09:13:11;3.97;;;2.80;;
9892;SDS011;4985;49.092;8.542;2022-11-12T09:15:38;3.87;;;3.37;;
9892;SDS011;4985;49.092;8.542;2022-11-12T09:18:05;4.30;;;3.30;;
9892;SDS011;4985;49.092;8.542;2022-11-12T09:20:33;4.03;;;3.53;;
9892;SDS011;4985;49.092;8.542;2022-11-12T09:23:02;3.50;;;3.00;;
9892;SDS011;4985;49.092;8.542;2022-11-12T09:25:32;3.83;;;2.97;;
9892;SDS011;4985;49.092;8.542;2022-11-12T09:28:04;4.33;;;3.20;;
9892;SDS011;4985;49.092;8.542;2022-11-12T09:30:31;4.23;;;3.13;;
9892;SDS011;4985;49.092;8.542;2022-11-12T09:32:58;3.87;;;3.30;;
9892;SDS011;4985;49.092;8.542;2022-11-12T09:35:25;4.03;;;3.23;;
9892;SDS011;4985;49.092;8.542;2022-11-12T09:37:51;5.07;;;3.23;;
9892;SDS011;4985;49.092;8.542;2022-11-12T09:40:19;4.07;;;3.43;;
9892;SDS011;4985;49.092;8.542;2022-11-12T09:42:50;4.73;;;3.77;;
9892;SDS011;4985;49.092;8.542;2022-11-12T09:45:19;4.33;;;3.70;;
9892;SDS011;4985;49.092;8.542;2022-11-12T09:47:49;4.20;;;3.80;;
9892;SDS011;4985;49.092;8.542;2022-11-12T09:50:20;4.77;;;3.93;;
9892;SDS011;4985;49.092;8.542;2022-11-12T09:52:51;8.17;;;4.27;;
9892;SDS011;4985;49.092;8.542;2022-11-12T09:55:27;5.90;;;4.17;;
9892;SDS011;4985;49.092;8.542;2022-11-12T09:57:56;5.53;;;4.20;;
9892;SDS011;4985;49.092;8.542;2022-11-12T10:00:22;5.87;;;4.67;;
9892;SDS011;4985;49.092;8.542;2022-11-12T10:02:51;7.03;;;4.10;;
9892;SDS011;4985;49.092;8.542;2022-11-12T10:05:24;5.73;;;4.07;;
9892;SDS011;4985;49.092;8.542;2022-11-12T10:10:57;4.43;;;4.03;;
9892;SDS011;4985;49.092;8.542;2022-11-12T10:13:37;5.97;;;5.30;;
9892;SDS011;4985;49.092;8.542;2022-11-12T10:16:18;5.70;;;4.23;;
9892;SDS011;4985;49.092;8.542;2022-11-12T10:19:12;5.17;;;3.83;;
9892;SDS011;4985;49.092;8.542;2022-11-12T10:21:53;4.90;;;3.87;;
9892;SDS011;4985;49.092;8.542;2022-11-12T10:24:27;5.43;;;3.90;;
9892;SDS011;4985;49.092;8.542;2022-11-12T10:27:00;7.37;;;3.80;;
9892;SDS011;4985;49.092;8.542;2022-11-12T10:29:37;5.97;;;3.97;;
9892;SDS011;4985;49.092;8.542;2022-11-12T10:32:12;6.17;;;3.80;;
9892;SDS011;4985;49.092;8.542;2022-11-12T10:34:41;4.63;;;3.93;;
9892;SDS011;4985;49.092;8.542;2022-11-12T10:37:10;5.03;;;3.97;;
9892;SDS011;4985;49.092;8.542;2022-11-12T10:39:42;4.50;;;3.90;;
9892;SDS011;4985;49.092;8.542;2022-11-12T10:42:13;4.60;;;3.70;;
9892;SDS011;4985;49.092;8.542;2022-11-12T10:44:42;5.43;;;4.10;;
9892;SDS011;4985;49.092;8.542;2022-11-12T10:47:21;5.97;;;4.63;;
9892;SDS011;4985;49.092;8.542;2022-11-12T10:50:04;4.80;;;3.87;;
9892;SDS011;4985;49.092;8.542;2022-11-12T10:52:53;4.20;;;3.70;;
9892;SDS011;4985;49.092;8.542;2022-11-12T10:55:22;6.70;;;4.13;;
9892;SDS011;4985;49.092;8.542;2022-11-12T11:03:43;6.63;;;4.17;;
9892;SDS011;4985;49.092;8.542;2022-11-12T11:06:18;3.83;;;3.50;;
9892;SDS011;4985;49.092;8.542;2022-11-12T11:08:47;4.00;;;3.47;;
9892;SDS011;4985;49.092;8.542;2022-11-12T11:11:17;4.40;;;3.93;;
9892;SDS011;4985;49.092;8.542;2022-11-12T11:13:47;5.47;;;3.90;;
9892;SDS011;4985;49.092;8.542;2022-11-12T11:16:16;5.10;;;4.07;;
9892;SDS011;4985;49.092;8.542;2022-11-12T11:18:45;5.53;;;4.17;;
9892;SDS011;4985;49.092;8.542;2022-11-12T11:24:19;5.50;;;3.90;;
9892;SDS011;4985;49.092;8.542;2022-11-12T11:26:53;6.07;;;3.80;;
9892;SDS011;4985;49.092;8.542;2022-11-12T11:29:31;6.10;;;4.13;;
9892;SDS011;4985;49.092;8.542;2022-11-12T11:32:10;6.10;;;4.93;;
9892;SDS011;4985;49.092;8.542;2022-11-12T11:34:49;6.80;;;5.13;;
9892;SDS011;4985;49.092;8.542;2022-11-12T11:37:28;4.87;;;4.17;;
9892;SDS011;4985;49.092;8.542;2022-11-12T11:39:59;4.80;;;4.23;;
9892;SDS011;4985;49.092;8.542;2022-11-12T11:42:42;5.27;;;4.17;;
9892;SDS011;4985;49.092;8.542;2022-11-12T11:45:24;5.13;;;4.00;;
9892;SDS011;4985;49.092;8.542;2022-11-12T11:48:00;5.33;;;4.63;;
9892;SDS011;4985;49.092;8.542;2022-11-12T11:50:37;5.43;;;4.27;;
9892;SDS011;4985;49.092;8.542;2022-11-12T11:53:11;5.80;;;4.30;;
9892;SDS011;4985;49.092;8.542;2022-11-12T11:55:52;5.80;;;4.37;;
9892;SDS011;4985;49.092;8.542;2022-11-12T11:58:28;6.67;;;4.43;;
9892;SDS011;4985;49.092;8.542;2022-11-12T12:01:11;4.80;;;4.00;;
9892;SDS011;4985;49.092;8.542;2022-11-12T12:03:48;5.87;;;5.13;;
9892;SDS011;4985;49.092;8.542;2022-11-12T12:06:26;5.67;;;4.63;;
9892;SDS011;4985;49.092;8.542;2022-11-12T12:08:57;6.73;;;5.47;;
9892;SDS011;4985;49.092;8.542;2022-11-12T12:11:34;5.03;;;4.10;;
9892;SDS011;4985;49.092;8.542;2022-11-12T12:14:20;6.17;;;4.50;;
9892;SDS011;4985;49.092;8.542;2022-11-12T12:17:02;4.77;;;3.83;;
9892;SDS011;4985;49.092;8.542;2022-11-12T12:19:45;4.97;;;4.20;;
9892;SDS011;4985;49.092;8.542;2022-11-12T12:22:22;4.53;;;3.80;;
9892;SDS011;4985;49.092;8.542;2022-11-12T12:24:55;4.50;;;3.90;;
9892;SDS011;4985;49.092;8.542;2022-11-12T12:27:28;5.70;;;5.00;;
9892;SDS011;4985;49.092;8.542;2022-11-12T12:29:57;5.90;;;4.80;;
9892;SDS011;4985;49.092;8.542;2022-11-12T12:32:30;5.53;;;4.33;;
9892;SDS011;4985;49.092;8.542;2022-11-12T12:35:01;4.77;;;4.27;;
9892;SDS011;4985;49.092;8.542;2022-11-12T12:37:34;5.87;;;4.17;;
9892;SDS011;4985;49.092;8.542;2022-11-12T12:40:08;4.50;;;3.70;;
9892;SDS011;4985;49.092;8.542;2022-11-12T12:42:43;4.07;;;3.60;;
9892;SDS011;4985;49.092;8.542;2022-11-12T12:45:22;4.27;;;3.80;;
9892;SDS011;4985;49.092;8.542;2022-11-12T12:47:56;6.43;;;4.73;;
9892;SDS011;4985;49.092;8.542;2022-11-12T12:50:25;5.97;;;4.27;;
9892;SDS011;4985;49.092;8.542;2022-11-12T12:53:02;6.13;;;5.17;;
9892;SDS011;4985;49.092;8.542;2022-11-12T12:55:33;5.10;;;4.17;;
9892;SDS011;4985;49.092;8.542;2022-11-12T12:58:14;5.33;;;4.50;;
9892;SDS011;4985;49.092;8.542;2022-11-12T13:00:45;6.00;;;4.57;;
9892;SDS011;4985;49.092;8.542;2022-11-12T13:06:15;4.97;;;4.47;;
9892;SDS011;4985;49.092;8.542;2022-11-12T13:08:49;6.83;;;5.10;;
9892;SDS011;4985;49.092;8.542;2022-11-12T13:14:49;5.43;;;4.90;;
9892;SDS011;4985;49.092;8.542;2022-11-12T13:20:30;5.63;;;4.60;;
9892;SDS011;4985;49.092;8.542;2022-11-12T13:23:03;6.20;;;4.73;;
9892;SDS011;4985;49.092;8.542;2022-11-12T13:25:34;5.07;;;4.47;;
9892;SDS011;4985;49.092;8.542;2022-11-12T13:28:08;4.97;;;4.47;;
9892;SDS011;4985;49.092;8.542;2022-11-12T13:30:55;5.10;;;4.60;;
9892;SDS011;4985;49.092;8.542;2022-11-12T13:33:25;6.73;;;5.10;;
9892;SDS011;4985;49.092;8.542;2022-11-12T13:36:16;7.10;;;5.13;;
9892;SDS011;4985;49.092;8.542;2022-11-12T13:38:50;5.70;;;4.97;;
9892;SDS011;4985;49.092;8.542;2022-11-12T13:41:18;5.57;;;4.50;;
9892;SDS011;4985;49.092;8.542;2022-11-12T13:44:07;5.67;;;5.00;;
9892;SDS011;4985;49.092;8.542;2022-11-12T13:46:40;5.93;;;4.73;;
9892;SDS011;4985;49.092;8.542;2022-11-12T13:49:09;5.27;;;4.50;;
9892;SDS011;4985;49.092;8.542;2022-11-12T13:51:39;5.73;;;4.80;;
9892;SDS011;4985;49.092;8.542;2022-11-12T13:54:25;4.87;;;4.37;;
9892;SDS011;4985;49.092;8.542;2022-11-12T13:57:11;5.73;;;4.97;;
9892;SDS011;4985;49.092;8.542;2022-11-12T13:59:51;6.43;;;5.07;;
9892;SDS011;4985;49.092;8.542;2022-11-12T14:02:34;6.43;;;5.20;;
9892;SDS011;4985;49.092;8.542;2022-11-12T14:05:02;5.20;;;4.53;;
9892;SDS011;4985;49.092;8.542;2022-11-12T14:07:42;5.70;;;4.73;;
9892;SDS011;4985;49.092;8.542;2022-11-12T14:10:18;6.43;;;4.70;;
9892;SDS011;4985;49.092;8.542;2022-11-12T14:13:03;6.07;;;5.10;;
9892;SDS011;4985;49.092;8.542;2022-11-12T14:15:53;6.30;;;5.50;;
9892;SDS011;4985;49.092;8.542;2022-11-12T14:18:31;8.70;;;5.00;;
9892;SDS011;4985;49.092;8.542;2022-11-12T14:21:04;6.87;;;5.00;;
9892;SDS011;4985;49.092;8.542;2022-11-12T14:23:33;7.93;;;6.03;;
9892;SDS011;4985;49.092;8.542;2022-11-12T14:26:03;6.00;;;5.13;;
9892;SDS011;4985;49.092;8.542;2022-11-12T14:28:30;6.93;;;5.57;;
9892;SDS011;4985;49.092;8.542;2022-11-12T14:30:59;5.97;;;5.13;;
9892;SDS011;4985;49.092;8.542;2022-11-12T14:33:28;6.30;;;5.40;;
9892;SDS011;4985;49.092;8.542;2022-11-12T14:35:58;6.70;;;5.87;;
9892;SDS011;4985;49.092;8.542;2022-11-12T14:38:27;7.60;;;5.53;;
9892;SDS011;4985;49.092;8.542;2022-11-12T14:41:00;6.27;;;5.67;;
9892;SDS011;4985;49.092;8.542;2022-11-12T14:43:30;7.37;;;5.77;;
9892;SDS011;4985;49.092;8.542;2022-11-12T14:46:00;7.10;;;5.73;;
9892;SDS011;4985;49.092;8.542;2022-11-12T14:48:29;7.17;;;5.33;;
9892;SDS011;4985;49.092;8.542;2022-11-12T14:51:00;6.67;;;5.07;;
9892;SDS011;4985;49.092;8.542;2022-11-12T14:53:31;6.17;;;4.67;;
9892;SDS011;4985;49.092;8.542;2022-11-12T14:56:06;7.10;;;5.50;;
9892;SDS011;4985;49.092;8.542;2022-11-12T14:58:34;8.77;;;5.83;;
9892;SDS011;4985;49.092;8.542;2022-11-12T15:01:16;6.77;;;5.20;;
9892;SDS011;4985;49.092;8.542;2022-11-12T15:03:44;7.90;;;5.83;;
9892;SDS011;4985;49.092;8.542;2022-11-12T15:06:11;6.40;;;5.43;;
9892;SDS011;4985;49.092;8.542;2022-11-12T15:08:38;9.20;;;5.90;;
9892;SDS011;4985;49.092;8.542;2022-11-12T15:11:20;8.67;;;5.77;;
9892;SDS011;4985;49.092;8.542;2022-11-12T15:13:51;5.27;;;4.40;;
9892;SDS011;4985;49.092;8.542;2022-11-12T15:16:22;5.77;;;4.57;;
9892;SDS011;4985;49.092;8.542;2022-11-12T15:21:44;5.70;;;4.73;;
9892;SDS011;4985;49.092;8.542;2022-11-12T15:24:16;5.87;;;4.90;;
9892;SDS011;4985;49.092;8.542;2022-11-12T15:26:47;6.93;;;5.30;;
9892;SDS011;4985;49.092;8.542;2022-11-12T15:29:23;6.53;;;5.13;;
9892;SDS011;4985;49.092;8.542;2022-11-12T15:31:53;6.90;;;5.90;;
9892;SDS011;4985;49.092;8.542;2022-11-12T15:34:28;6.07;;;4.93;;
9892;SDS011;4985;49.092;8.542;2022-11-12T15:36:57;7.50;;;5.97;;
9892;SDS011;4985;49.092;8.542;2022-11-12T15:39:26;10.87;;;5.60;;
9892;SDS011;4985;49.092;8.542;2022-11-12T15:41:56;6.33;;;5.67;;
9892;SDS011;4985;49.092;8.542;2022-11-12T15:44:25;7.03;;;6.10;;
9892;SDS011;4985;49.092;8.542;2022-11-12T15:46:58;8.00;;;5.90;;
9892;SDS011;4985;49.092;8.542;2022-11-12T15:49:26;7.03;;;5.80;;
9892;SDS011;4985;49.092;8.542;2022-11-12T15:51:52;6.97;;;5.53;;
9892;SDS011;4985;49.092;8.542;2022-11-12T15:54:19;7.57;;;6.07;;
9892;SDS011;4985;49.092;8.542;2022-11-12T15:56:46;6.87;;;5.33;;
9892;SDS011;4985;49.092;8.542;2022-11-12T15:59:15;6.73;;;5.77;;